createdAt,value
2018-07-14T00:09:29.234Z,48.52
2018-07-14T00:24:33.073Z,47.70
2018-07-14T00:39:36.804Z,47.34
2018-07-14T00:54:40.562Z,47.56
2018-07-14T01:09:44.269Z,47.58
2018-07-14T01:24:48.115Z,46.50
2018-07-14T01:39:51.828Z,46.93
2018-07-14T01:54:55.671Z,46.76
2018-07-14T02:09:59.454Z,46.53
2018-07-14T02:25:04.306Z,46.27
2018-07-14T02:40:08.077Z,47.33
2018-07-14T02:55:11.836Z,46.88
2018-07-14T03:10:15.589Z,47.56
2018-07-14T03:25:19.362Z,47.23
2018-07-14T03:40:23.148Z,46.35
2018-07-14T03:55:27.013Z,45.45
2018-07-14T04:10:30.867Z,43.46
2018-07-14T04:25:34.602Z,44.27
2018-07-14T04:40:38.407Z,41.09
2018-07-14T04:55:43.225Z,38.58
2018-07-14T05:10:46.921Z,36.80
2018-07-14T05:25:52.212Z,35.05
2018-07-14T05:40:56.018Z,35.58
2018-07-14T05:55:59.757Z,33.41
2018-07-14T06:11:03.575Z,32.54
2018-07-14T06:26:07.386Z,29.41
2018-07-14T06:41:11.178Z,27.25
2018-07-14T06:56:15.885Z,25.86
2018-07-14T07:48:28.139Z,46.74
2018-07-14T08:03:32.250Z,48.89
2018-07-14T08:18:36.503Z,49.39
2018-07-14T08:33:40.921Z,48.50
2018-07-14T08:48:45.247Z,49.37
2018-07-14T09:04:19.588Z,49.27
2018-07-14T09:51:32.336Z,38.06
2018-07-14T10:06:36.250Z,38.36
2018-07-14T10:21:40.232Z,32.01
2018-07-14T10:36:43.996Z,31.78
2018-07-14T10:51:47.961Z,28.56
2018-07-14T11:06:51.707Z,32.54
2018-07-14T11:21:55.639Z,33.77
2018-07-14T11:36:59.388Z,36.53
2018-07-14T11:52:03.215Z,32.63
2018-07-14T12:07:07.117Z,37.40
2018-07-14T12:22:10.905Z,38.49
2018-07-14T12:37:14.675Z,36.23
2018-07-14T12:52:18.444Z,36.80
2018-07-14T13:07:22.246Z,35.47
2018-07-14T13:22:25.981Z,39.68
2018-07-14T13:37:29.874Z,39.45
2018-07-14T13:52:33.708Z,40.96
2018-07-14T14:07:37.491Z,43.34
2018-07-14T14:22:41.292Z,43.32
2018-07-14T14:37:45.067Z,43.51
2018-07-14T14:52:48.819Z,43.06
2018-07-14T15:07:52.654Z,41.91
2018-07-14T15:22:56.476Z,40.57
2018-07-14T15:38:00.459Z,42.47
2018-07-14T15:53:04.291Z,43.83
2018-07-14T16:08:08.075Z,45.31
2018-07-14T16:23:12.342Z,44.89
2018-07-14T17:06:20.605Z,46.98
2018-07-14T17:21:24.891Z,50.01
2018-07-14T17:36:29.173Z,50.69
2018-07-14T17:51:33.482Z,54.50
2018-07-14T18:06:37.802Z,55.52
2018-07-14T18:21:41.958Z,56.09
2018-07-14T18:36:46.154Z,56.55
2018-07-14T18:51:50.267Z,57.73
2018-07-14T19:06:54.450Z,58.56
2018-07-14T19:21:58.570Z,58.86
2018-07-14T19:37:02.842Z,58.76
2018-07-14T19:52:07.282Z,59.49
2018-07-14T20:07:11.544Z,60.15
2018-07-14T20:22:15.860Z,60.75
2018-07-14T20:37:19.939Z,61.52
2018-07-14T20:52:24.041Z,61.91
2018-07-14T21:07:28.090Z,61.87
2018-07-14T21:22:32.160Z,62.29
2018-07-14T21:37:36.442Z,62.36
2018-07-14T21:52:40.610Z,61.32
2018-07-14T22:07:44.593Z,61.87
2018-07-14T22:22:48.754Z,62.62
2018-07-14T22:37:53.210Z,62.68
2018-07-14T22:52:57.471Z,61.67
2018-07-14T23:08:01.678Z,62.83
2018-07-14T23:23:05.740Z,63.56
2018-07-14T23:38:09.808Z,64.19
2018-07-14T23:53:14.208Z,64.43
